Time;durP1;ratioP1;P1;durP2;ratioP2;P2;SDS_P1;SDS_P2;PMS_P1;PMS_P2;Temp;Humidity;BMP_temperature;BMP_pressure;BME280_temperature;BME280_humidity;BME280_pressure;Samples;Min_cycle;Max_cycle;Signal;HPM_P1;HPM_P2
2021/06/22 00:01:48;;;;;;;8.25;1.67;;;18.10;99.90;;;;;;5042636;28;20021;-84
2021/06/22 00:04:14;;;;;;;8.05;1.50;;;18.10;99.90;;;;;;5045338;28;20025;-84
2021/06/22 00:06:39;;;;;;;4.65;1.42;;;18.10;99.90;;;;;;5043881;28;20024;-84
2021/06/22 00:09:05;;;;;;;9.43;1.63;;;18.10;99.90;;;;;;5052025;28;20165;-84
2021/06/22 00:11:31;;;;;;;6.60;1.45;;;18.10;99.90;;;;;;5043883;28;20032;-84
2021/06/22 00:13:58;;;;;;;7.53;1.58;;;18.00;99.90;;;;;;5052045;28;20099;-84
2021/06/22 00:16:24;;;;;;;9.20;1.50;;;18.10;99.90;;;;;;5043754;28;20389;-84
2021/06/22 00:18:49;;;;;;;8.05;2.00;;;18.00;99.90;;;;;;5052319;28;20035;-84
2021/06/22 00:21:15;;;;;;;8.30;1.50;;;17.90;99.90;;;;;;5043500;28;20028;-84
2021/06/22 00:23:41;;;;;;;4.95;1.50;;;18.00;99.90;;;;;;5051236;28;20472;-84
2021/06/22 00:26:07;;;;;;;10.73;1.95;;;18.00;99.90;;;;;;5050359;28;20477;-84
2021/06/22 00:28:32;;;;;;;7.03;1.73;;;17.90;99.90;;;;;;5052074;28;20036;-86
2021/06/22 00:30:58;;;;;;;7.32;1.70;;;17.90;99.90;;;;;;5045855;28;20108;-87
2021/06/22 00:33:24;;;;;;;7.05;1.83;;;17.90;99.90;;;;;;5051110;28;20116;-86
2021/06/22 00:35:49;;;;;;;12.48;1.80;;;17.90;99.90;;;;;;5044012;28;20249;-86
2021/06/22 00:38:15;;;;;;;8.27;1.85;;;17.90;99.90;;;;;;5050088;28;20025;-87
2021/06/22 00:40:41;;;;;;;9.27;1.75;;;17.80;99.90;;;;;;5049961;28;20516;-86
2021/06/22 00:43:06;;;;;;;8.45;1.60;;;17.80;99.90;;;;;;5038273;28;20055;-87
2021/06/22 00:45:34;;;;;;;9.93;1.90;;;17.80;99.90;;;;;;5049911;28;20642;-86
2021/06/22 00:48:00;;;;;;;9.30;1.83;;;17.70;99.90;;;;;;5038072;28;20060;-85
2021/06/22 00:50:27;;;;;;;6.63;1.67;;;17.70;99.90;;;;;;5046497;28;20017;-85
2021/06/22 00:52:53;;;;;;;11.18;1.50;;;17.70;99.90;;;;;;5048027;28;20058;-85
2021/06/22 00:55:29;;;;;;;6.15;1.80;;;17.70;99.90;;;;;;5047545;28;20056;-85
2021/06/22 00:58:00;;;;;;;10.20;1.70;;;17.60;99.90;;;;;;5048112;28;20502;-85
2021/06/22 01:00:26;;;;;;;11.10;1.98;;;17.60;99.90;;;;;;5046391;28;20029;-85
2021/06/22 01:02:54;;;;;;;5.78;1.40;;;17.60;99.90;;;;;;5045410;28;20547;-85
2021/06/22 01:05:20;;;;;;;5.22;1.33;;;17.60;99.90;;;;;;5039265;28;20028;-85
2021/06/22 01:07:47;;;;;;;7.85;1.63;;;17.60;99.90;;;;;;5040689;28;20021;-85
2021/06/22 01:10:12;;;;;;;7.00;1.60;;;17.60;99.90;;;;;;5045402;28;20033;-85
2021/06/22 01:12:38;;;;;;;3.17;1.33;;;17.50;99.90;;;;;;5039068;28;20083;-85
2021/06/22 01:15:15;;;;;;;6.03;1.48;;;17.50;99.90;;;;;;5046589;28;20100;-86
2021/06/22 01:17:41;;;;;;;12.35;2.08;;;17.50;99.90;;;;;;5036710;28;20036;-85
2021/06/22 01:20:07;;;;;;;8.90;1.58;;;17.40;99.90;;;;;;5049595;28;20029;-85
2021/06/22 01:22:33;;;;;;;9.32;1.48;;;17.40;99.90;;;;;;5038229;28;20437;-85
2021/06/22 01:24:59;;;;;;;7.93;1.60;;;17.40;99.90;;;;;;5039355;28;20025;-85
2021/06/22 01:27:25;;;;;;;8.63;1.92;;;17.50;99.90;;;;;;5043477;28;20194;-84
2021/06/22 01:29:52;;;;;;;12.07;2.53;;;17.50;99.90;;;;;;5049328;28;20362;-84
2021/06/22 01:32:17;;;;;;;7.07;1.42;;;17.50;99.90;;;;;;5042328;28;20670;-85
2021/06/22 01:34:43;;;;;;;9.93;1.50;;;17.40;99.90;;;;;;5050429;28;20178;-85
2021/06/22 01:37:10;;;;;;;7.40;1.60;;;17.50;99.90;;;;;;5035365;28;20025;-84
2021/06/22 01:39:36;;;;;;;6.30;1.42;;;17.40;99.90;;;;;;5042413;28;20079;-85
2021/06/22 01:42:02;;;;;;;4.90;1.55;;;17.40;99.90;;;;;;5041910;28;20025;-84
2021/06/22 01:44:29;;;;;;;9.05;1.38;;;17.40;99.90;;;;;;5050237;28;20025;-84
2021/06/22 01:46:55;;;;;;;8.50;2.22;;;17.40;99.90;;;;;;5049085;28;20099;-85
2021/06/22 01:49:21;;;;;;;6.70;1.63;;;17.40;99.90;;;;;;5048181;28;20037;-85
2021/06/22 01:51:46;;;;;;;6.38;1.40;;;17.40;99.90;;;;;;5050683;28;20104;-85
2021/06/22 01:54:12;;;;;;;6.00;1.50;;;17.40;99.90;;;;;;5050231;28;20064;-84
2021/06/22 01:56:40;;;;;;;5.05;1.60;;;17.40;99.90;;;;;;5050189;28;20486;-84
2021/06/22 01:59:06;;;;;;;11.60;1.77;;;17.40;99.90;;;;;;5047343;28;20024;-85
2021/06/22 02:01:32;;;;;;;9.38;1.60;;;17.40;99.90;;;;;;5048891;28;20567;-84
2021/06/22 02:03:58;;;;;;;9.80;2.13;;;17.30;99.90;;;;;;5048413;28;20211;-85
2021/06/22 02:06:24;;;;;;;10.70;1.70;;;17.30;99.90;;;;;;5048170;28;20064;-84
2021/06/22 02:08:49;;;;;;;6.35;1.48;;;17.30;99.90;;;;;;5049058;28;20029;-85
2021/06/22 02:11:15;;;;;;;7.68;2.70;;;17.20;99.90;;;;;;5047646;28;20367;-84
2021/06/22 02:13:41;;;;;;;13.82;2.22;;;17.20;99.90;;;;;;5049878;28;20037;-84
2021/06/22 02:16:07;;;;;;;11.93;2.50;;;17.10;99.90;;;;;;5040638;28;20033;-84
2021/06/22 02:18:32;;;;;;;12.48;2.20;;;17.00;99.90;;;;;;5046923;28;20032;-84
2021/06/22 02:20:58;;;;;;;10.90;1.75;;;17.00;99.90;;;;;;5038316;28;20033;-84
2021/06/22 02:23:24;;;;;;;8.43;1.90;;;17.00;99.90;;;;;;5050081;28;20026;-84
2021/06/22 02:25:50;;;;;;;12.13;1.90;;;16.90;99.90;;;;;;5049511;28;20127;-84
2021/06/22 02:28:19;;;;;;;8.30;1.77;;;16.90;99.90;;;;;;5043270;28;20274;-85
2021/06/22 02:30:46;;;;;;;9.75;1.48;;;16.80;99.90;;;;;;5049414;28;20021;-85
2021/06/22 02:33:12;;;;;;;15.70;2.38;;;16.90;99.90;;;;;;5043713;28;20036;-84
2021/06/22 02:35:39;;;;;;;11.77;1.67;;;16.80;99.90;;;;;;5049125;28;20100;-84
2021/06/22 02:38:05;;;;;;;16.52;2.00;;;16.80;99.90;;;;;;5041926;28;20424;-84
2021/06/22 02:40:31;;;;;;;13.82;1.92;;;16.80;99.90;;;;;;5047967;28;20070;-84
2021/06/22 02:42:57;;;;;;;11.85;1.80;;;16.80;99.90;;;;;;5041735;28;20029;-85
2021/06/22 02:45:23;;;;;;;11.32;2.00;;;16.80;99.90;;;;;;5049345;28;20025;-84
2021/06/22 02:47:49;;;;;;;11.80;2.25;;;16.80;99.90;;;;;;5040194;28;20017;-84
2021/06/22 02:50:18;;;;;;;12.02;1.98;;;16.80;99.90;;;;;;5047679;28;20028;-84
2021/06/22 02:52:44;;;;;;;15.38;2.10;;;16.80;99.90;;;;;;5048483;28;20025;-84
2021/06/22 02:55:20;;;;;;;12.88;1.98;;;16.80;99.90;;;;;;5048045;28;20029;-84
2021/06/22 02:57:48;;;;;;;13.15;1.67;;;16.70;99.90;;;;;;5038103;28;20065;-84
2021/06/22 03:00:16;;;;;;;13.63;2.13;;;16.70;99.90;;;;;;5045379;28;20200;-84
2021/06/22 03:02:42;;;;;;;9.05;1.77;;;16.70;99.90;;;;;;5042527;28;20021;-84
2021/06/22 03:05:08;;;;;;;10.38;1.80;;;16.80;99.90;;;;;;5047841;28;20458;-84
2021/06/22 03:07:34;;;;;;;19.17;2.30;;;16.70;99.90;;;;;;5038986;28;20063;-84
2021/06/22 03:10:00;;;;;;;15.48;2.53;;;16.70;99.90;;;;;;5043287;28;20029;-84
2021/06/22 03:12:25;;;;;;;10.43;1.35;;;16.70;99.90;;;;;;5043947;28;20045;-84
2021/06/22 03:14:51;;;;;;;9.20;1.67;;;16.70;99.90;;;;;;5048894;28;20025;-84
2021/06/22 03:17:17;;;;;;;7.70;1.65;;;16.80;99.90;;;;;;5041694;28;20408;-84
2021/06/22 03:19:42;;;;;;;11.15;2.30;;;16.80;99.90;;;;;;5048851;28;20517;-85
2021/06/22 03:22:08;;;;;;;14.52;2.20;;;16.80;99.90;;;;;;5038485;28;20028;-84
2021/06/22 03:24:34;;;;;;;7.95;1.60;;;16.90;99.90;;;;;;5048806;28;20053;-85
2021/06/22 03:27:00;;;;;;;7.30;1.77;;;17.00;99.90;;;;;;5047993;28;20025;-84
2021/06/22 03:29:25;;;;;;;11.23;1.73;;;17.00;99.90;;;;;;5048882;28;20024;-84
2021/06/22 03:31:52;;;;;;;13.95;2.28;;;17.00;99.90;;;;;;5048014;28;20029;-84
2021/06/22 03:34:19;;;;;;;15.50;1.88;;;17.00;99.90;;;;;;5034545;28;20524;-84
2021/06/22 03:36:44;;;;;;;15.07;1.98;;;17.10;99.90;;;;;;5042985;28;20026;-84
2021/06/22 03:39:10;;;;;;;9.55;1.70;;;17.00;99.90;;;;;;5044754;28;20029;-85
2021/06/22 03:41:37;;;;;;;14.43;1.88;;;17.00;99.90;;;;;;5044115;28;20049;-85
2021/06/22 03:44:04;;;;;;;17.90;2.33;;;17.00;99.90;;;;;;5043305;28;20028;-85
2021/06/22 03:46:30;;;;;;;7.43;2.00;;;17.00;99.90;;;;;;5042620;28;20028;-84
2021/06/22 03:48:56;;;;;;;13.60;1.95;;;17.00;99.90;;;;;;5039921;28;20124;-84
2021/06/22 03:51:21;;;;;;;12.00;2.00;;;17.00;99.90;;;;;;5041408;28;20621;-84
2021/06/22 03:53:48;;;;;;;19.00;2.40;;;17.10;99.90;;;;;;5039450;28;20036;-85
2021/06/22 03:56:15;;;;;;;9.00;1.67;;;17.10;99.90;;;;;;5040113;28;20030;-85
2021/06/22 03:58:42;;;;;;;8.98;1.60;;;17.10;99.90;;;;;;5037836;28;20087;-85
2021/06/22 04:01:07;;;;;;;13.73;1.80;;;17.20;99.90;;;;;;5043996;28;20036;-84
2021/06/22 04:03:33;;;;;;;12.30;2.00;;;17.20;99.90;;;;;;5051376;28;20017;-84
2021/06/22 04:05:59;;;;;;;10.15;1.98;;;17.20;99.90;;;;;;5043461;28;20037;-85
2021/06/22 04:08:25;;;;;;;10.85;1.67;;;17.20;99.90;;;;;;5037094;28;20155;-85
2021/06/22 04:10:51;;;;;;;11.32;1.75;;;17.20;99.90;;;;;;5044613;28;20505;-84
2021/06/22 04:13:17;;;;;;;11.50;2.17;;;17.20;99.90;;;;;;5050236;28;20033;-84
2021/06/22 04:15:42;;;;;;;16.02;2.60;;;17.20;99.90;;;;;;5045662;28;20036;-85
2021/06/22 04:18:09;;;;;;;11.38;2.10;;;17.20;99.90;;;;;;5049050;28;20029;-84
2021/06/22 04:20:37;;;;;;;11.23;2.53;;;17.30;99.90;;;;;;5046201;28;20018;-84
2021/06/22 04:23:05;;;;;;;15.52;2.58;;;17.30;99.90;;;;;;5049527;28;20033;-84
2021/06/22 04:25:31;;;;;;;6.95;1.60;;;17.40;99.90;;;;;;5051458;28;20029;-84
2021/06/22 04:27:59;;;;;;;10.50;1.50;;;17.40;99.90;;;;;;5052209;28;20163;-84
2021/06/22 04:30:25;;;;;;;16.55;2.45;;;17.30;99.90;;;;;;5051461;28;20029;-85
2021/06/22 04:32:51;;;;;;;11.02;2.10;;;17.30;99.90;;;;;;5052181;28;20104;-85
2021/06/22 04:35:16;;;;;;;13.98;2.22;;;17.30;99.90;;;;;;5051398;28;20032;-84
2021/06/22 04:37:42;;;;;;;14.05;2.50;;;17.30;99.90;;;;;;5038394;28;20441;-84
2021/06/22 04:40:10;;;;;;;11.85;1.92;;;17.40;99.90;;;;;;5044430;28;20025;-84
2021/06/22 04:42:36;;;;;;;11.60;1.92;;;17.40;99.90;;;;;;5043755;28;20013;-84
2021/06/22 04:45:02;;;;;;;15.43;2.28;;;17.40;99.90;;;;;;5051445;28;20032;-84
2021/06/22 04:47:27;;;;;;;12.32;2.20;;;17.50;99.90;;;;;;5043147;28;20044;-85
2021/06/22 04:49:53;;;;;;;12.70;2.05;;;17.40;99.90;;;;;;5051092;28;20079;-84
2021/06/22 04:52:19;;;;;;;16.35;2.33;;;17.50;99.90;;;;;;5041857;28;20044;-85
2021/06/22 04:54:44;;;;;;;18.00;2.30;;;17.50;99.90;;;;;;5051369;28;20405;-85
2021/06/22 04:57:13;;;;;;;12.95;1.98;;;17.50;99.90;;;;;;5041813;28;20042;-85
2021/06/22 04:59:38;;;;;;;14.27;2.50;;;17.50;99.90;;;;;;5050251;28;20557;-85
2021/06/22 05:02:05;;;;;;;12.15;1.80;;;17.50;99.90;;;;;;5035610;28;20121;-85
2021/06/22 05:04:32;;;;;;;10.77;2.30;;;17.50;99.90;;;;;;5046201;28;20020;-85
2021/06/22 05:06:58;;;;;;;15.02;2.35;;;17.50;99.90;;;;;;5043890;28;20029;-85
2021/06/22 05:09:25;;;;;;;9.07;2.15;;;17.50;99.90;;;;;;5042240;28;20025;-85
2021/06/22 05:11:51;;;;;;;14.13;2.60;;;17.40;99.90;;;;;;5041085;28;20017;-86
2021/06/22 05:14:17;;;;;;;13.32;2.75;;;17.40;99.90;;;;;;5050243;28;20037;-85
2021/06/22 05:16:43;;;;;;;6.93;1.73;;;17.40;99.90;;;;;;5044267;28;20040;-85
2021/06/22 05:19:09;;;;;;;15.23;2.33;;;17.40;99.90;;;;;;5054502;28;20188;-84
2021/06/22 05:21:34;;;;;;;8.75;2.13;;;17.40;99.90;;;;;;5045939;28;20446;-85
2021/06/22 05:24:00;;;;;;;11.82;2.10;;;17.40;99.90;;;;;;5053652;28;20421;-85
2021/06/22 05:26:26;;;;;;;11.57;2.17;;;17.40;99.90;;;;;;5082493;28;20505;-84
2021/06/22 05:28:51;;;;;;;11.75;2.72;;;17.40;99.90;;;;;;5052005;28;20374;-85
2021/06/22 05:31:18;;;;;;;11.10;2.25;;;17.50;99.90;;;;;;5051031;28;20029;-85
2021/06/22 05:33:43;;;;;;;12.30;2.45;;;17.50;99.90;;;;;;5051123;28;20128;-88
2021/06/22 05:36:09;;;;;;;11.75;2.55;;;17.50;99.90;;;;;;5052977;28;20052;-86
2021/06/22 05:38:37;;;;;;;14.35;3.15;;;17.60;99.90;;;;;;5051549;28;20072;-89
2021/06/22 05:41:03;;;;;;;8.95;2.22;;;17.70;99.90;;;;;;5054426;28;20063;-86
2021/06/22 05:43:29;;;;;;;8.43;2.38;;;17.80;99.90;;;;;;5051023;28;20025;-85
2021/06/22 05:45:54;;;;;;;10.50;1.95;;;17.90;99.90;;;;;;5051365;28;20025;-86
2021/06/22 05:48:20;;;;;;;6.18;1.77;;;18.00;99.90;;;;;;5041995;28;20436;-86
2021/06/22 05:50:46;;;;;;;10.02;2.13;;;18.00;99.90;;;;;;5044473;28;20161;-86
2021/06/22 05:53:11;;;;;;;11.77;2.17;;;18.00;99.90;;;;;;5050929;28;20033;-86
2021/06/22 05:55:37;;;;;;;15.95;2.15;;;18.10;99.90;;;;;;5049816;28;20099;-86
2021/06/22 05:58:03;;;;;;;7.63;1.88;;;18.20;99.90;;;;;;5049846;28;20063;-86
2021/06/22 06:00:32;;;;;;;7.60;1.80;;;18.20;99.90;;;;;;5043526;28;20021;-86
2021/06/22 06:02:57;;;;;;;10.52;2.47;;;18.30;99.90;;;;;;5043087;28;20029;-86
2021/06/22 06:05:24;;;;;;;10.63;2.22;;;18.30;99.90;;;;;;5039447;28;20027;-85
2021/06/22 06:07:51;;;;;;;12.10;1.88;;;18.40;99.90;;;;;;5049131;28;20025;-86
2021/06/22 06:10:17;;;;;;;7.20;2.15;;;18.40;99.90;;;;;;5047313;28;20021;-86
2021/06/22 06:12:43;;;;;;;8.38;2.13;;;18.50;99.90;;;;;;5044768;28;20024;-85
2021/06/22 06:15:11;;;;;;;12.30;2.00;;;18.50;99.90;;;;;;5047857;28;20029;-86
2021/06/22 06:17:37;;;;;;;7.70;2.15;;;18.50;99.90;;;;;;5043331;28;20052;-86
2021/06/22 06:20:06;;;;;;;9.18;1.95;;;18.50;99.90;;;;;;5047642;28;20048;-86
2021/06/22 06:22:32;;;;;;;11.02;2.28;;;18.50;99.90;;;;;;5042928;28;20027;-85
2021/06/22 06:25:01;;;;;;;8.88;2.20;;;18.60;99.90;;;;;;5048986;28;20037;-85
2021/06/22 06:30:15;;;;;;;8.27;2.47;;;18.50;99.90;;;;;;5043602;28;20047;-87
2021/06/22 06:32:40;;;;;;;7.82;2.53;;;18.40;99.90;;;;;;5041327;28;20045;-86
2021/06/22 06:35:07;;;;;;;7.03;2.33;;;18.40;99.90;;;;;;5048763;28;20036;-86
2021/06/22 06:37:33;;;;;;;7.47;2.55;;;18.40;99.90;;;;;;5043640;28;20106;-85
2021/06/22 06:39:59;;;;;;;10.55;2.30;;;18.30;99.90;;;;;;5040983;28;20029;-86
2021/06/22 06:42:25;;;;;;;7.18;2.22;;;18.20;99.90;;;;;;5042513;28;20490;-81
2021/06/22 06:44:51;;;;;;;14.68;3.15;;;18.20;99.90;;;;;;5042931;28;20025;-81
2021/06/22 06:47:17;;;;;;;7.68;1.98;;;18.20;99.90;;;;;;5043865;28;20013;-82
2021/06/22 06:49:43;;;;;;;6.82;2.30;;;18.20;99.90;;;;;;5035337;28;20044;-81
2021/06/22 06:52:09;;;;;;;7.80;2.00;;;18.20;99.90;;;;;;5042683;28;20072;-82
2021/06/22 06:54:34;;;;;;;8.82;2.20;;;18.20;99.90;;;;;;5033261;28;20033;-82
2021/06/22 06:57:00;;;;;;;6.78;2.30;;;18.50;99.90;;;;;;5040581;28;20037;-81
2021/06/22 06:59:26;;;;;;;4.80;1.50;;;18.60;99.90;;;;;;5041724;28;20029;-81
2021/06/22 07:01:51;;;;;;;7.15;1.80;;;18.80;99.90;;;;;;5038034;28;20019;-81
2021/06/22 07:04:18;;;;;;;5.63;1.88;;;19.00;99.90;;;;;;5040449;28;20503;-81
2021/06/22 07:06:43;;;;;;;4.78;1.42;;;19.20;99.90;;;;;;5039395;28;20490;-82
2021/06/22 07:09:09;;;;;;;6.05;1.73;;;19.30;99.90;;;;;;5046916;28;20033;-82
2021/06/22 07:11:36;;;;;;;4.47;1.60;;;19.30;99.90;;;;;;5044771;28;20092;-81
2021/06/22 07:14:03;;;;;;;3.15;1.52;;;19.50;99.90;;;;;;5031707;28;20037;-82
2021/06/22 07:16:28;;;;;;;4.82;1.58;;;19.70;99.90;;;;;;5043979;28;20454;-82
2021/06/22 07:18:54;;;;;;;10.30;1.90;;;19.90;99.90;;;;;;5041637;28;20056;-82
2021/06/22 07:21:20;;;;;;;6.78;1.98;;;19.90;99.90;;;;;;5045257;28;20030;-80
2021/06/22 07:23:46;;;;;;;5.53;1.50;;;19.90;99.90;;;;;;5035294;28;20036;-76
2021/06/22 07:26:13;;;;;;;8.20;1.85;;;19.90;99.90;;;;;;5045385;28;20032;-76
2021/06/22 07:28:39;;;;;;;4.43;1.40;;;20.10;99.90;;;;;;5041112;28;20022;-76
2021/06/22 07:31:08;;;;;;;12.65;2.30;;;20.30;99.90;;;;;;5045917;28;20098;-76
2021/06/22 07:33:34;;;;;;;51.17;6.90;;;20.50;99.90;;;;;;5041140;28;20406;-76
2021/06/22 07:36:00;;;;;;;13.70;2.33;;;20.50;99.90;;;;;;5046043;28;20276;-76
2021/06/22 07:38:26;;;;;;;9.57;1.50;;;20.40;99.90;;;;;;5045486;28;20229;-76
2021/06/22 07:40:51;;;;;;;5.30;1.27;;;20.40;99.90;;;;;;5049911;28;20025;-76
2021/06/22 07:43:17;;;;;;;4.60;1.23;;;20.40;99.90;;;;;;5048047;28;20056;-76
2021/06/22 07:45:43;;;;;;;4.70;1.50;;;20.40;99.90;;;;;;5048989;28;20167;-76
2021/06/22 07:48:10;;;;;;;4.93;1.30;;;20.60;99.90;;;;;;5042066;28;20029;-78
2021/06/22 07:50:36;;;;;;;4.80;1.50;;;20.50;99.90;;;;;;5043312;28;20521;-77
2021/06/22 07:53:03;;;;;;;3.28;1.15;;;20.70;99.90;;;;;;5043800;28;20128;-78
2021/06/22 07:55:30;;;;;;;8.95;1.77;;;20.80;99.90;;;;;;5042170;28;20059;-79
2021/06/22 07:57:56;;;;;;;191.77;17.63;;;20.90;99.90;;;;;;5044317;28;20118;-79
2021/06/22 08:00:42;;;;;;;103.65;10.70;;;21.00;99.90;;;;;;5042383;28;20021;-78
2021/06/22 08:03:16;;;;;;;22.20;2.47;;;21.00;99.90;;;;;;5035975;28;20052;-79
2021/06/22 08:05:43;;;;;;;21.80;3.72;;;20.80;99.90;;;;;;5044906;28;20026;-78
2021/06/22 08:08:12;;;;;;;4.28;1.20;;;20.60;99.90;;;;;;5037406;28;20032;-80
2021/06/22 08:10:38;;;;;;;5.20;1.50;;;20.50;99.90;;;;;;5046332;28;20120;-79
2021/06/22 08:13:04;;;;;;;6.53;1.30;;;20.50;99.90;;;;;;5048746;28;20045;-79
2021/06/22 08:15:30;;;;;;;4.35;1.00;;;20.60;99.90;;;;;;5051045;28;20025;-78
2021/06/22 08:17:57;;;;;;;7.18;1.48;;;20.80;99.90;;;;;;5048559;28;20032;-78
2021/06/22 08:20:22;;;;;;;7.60;1.60;;;20.80;99.90;;;;;;5047999;28;20474;-79
2021/06/22 08:22:53;;;;;;;6.03;1.38;;;20.80;99.90;;;;;;5042733;28;20171;-78
2021/06/22 08:25:24;;;;;;;3.92;1.15;;;20.80;99.90;;;;;;5047654;28;20075;-78
2021/06/22 08:27:50;;;;;;;7.00;1.23;;;20.80;99.90;;;;;;5043545;28;20037;-78
2021/06/22 08:30:17;;;;;;;8.80;1.90;;;20.80;99.90;;;;;;5045098;28;20025;-78
2021/06/22 08:32:43;;;;;;;4.75;1.20;;;20.80;99.90;;;;;;5044213;28;20057;-78
2021/06/22 08:35:09;;;;;;;5.30;1.20;;;20.80;99.90;;;;;;5040700;28;20114;-86
2021/06/22 08:37:36;;;;;;;6.10;0.90;;;20.90;99.90;;;;;;5040204;28;20021;-79
2021/06/22 08:40:03;;;;;;;4.70;1.10;;;21.00;99.90;;;;;;5041848;28;20079;-80
2021/06/22 08:42:30;;;;;;;2.90;0.63;;;21.10;99.90;;;;;;5047392;28;20017;-79
2021/06/22 08:44:56;;;;;;;3.33;1.10;;;21.20;99.90;;;;;;5045782;28;20028;-77
2021/06/22 08:47:24;;;;;;;4.03;0.88;;;21.10;99.90;;;;;;5042727;28;20104;-77
2021/06/22 08:49:53;;;;;;;3.53;0.80;;;20.90;99.90;;;;;;5048533;28;20379;-78
2021/06/22 08:52:24;;;;;;;4.05;1.10;;;21.00;99.90;;;;;;5049995;28;20265;-77
2021/06/22 08:54:54;;;;;;;3.47;0.70;;;21.20;99.90;;;;;;5038785;28;20033;-77
2021/06/22 08:57:23;;;;;;;5.22;1.10;;;21.40;99.90;;;;;;5050200;28;20119;-77
2021/06/22 08:59:50;;;;;;;6.03;1.23;;;21.70;99.90;;;;;;5039558;28;20043;-77
2021/06/22 09:02:23;;;;;;;5.05;0.95;;;22.00;99.90;;;;;;5041460;28;20037;-77
2021/06/22 09:04:49;;;;;;;4.80;1.10;;;22.40;99.90;;;;;;5038054;28;20035;-77
2021/06/22 09:07:41;;;;;;;4.95;1.08;;;22.80;99.90;;;;;;5035870;28;20025;-77
2021/06/22 09:10:07;;;;;;;3.05;0.75;;;23.10;99.90;;;;;;5047098;28;20040;-77
2021/06/22 09:12:33;;;;;;;5.90;0.60;;;23.40;99.90;;;;;;5043132;28;20313;-77
2021/06/22 09:14:59;;;;;;;4.60;0.95;;;23.70;99.90;;;;;;5050057;28;20333;-77
2021/06/22 09:17:35;;;;;;;3.58;0.95;;;23.80;99.90;;;;;;5042056;28;20025;-78
2021/06/22 09:20:01;;;;;;;4.63;1.15;;;23.70;99.90;;;;;;5049932;28;20029;-77
2021/06/22 09:22:28;;;;;;;2.88;0.90;;;23.40;99.90;;;;;;5042156;28;20049;-77
2021/06/22 09:25:00;;;;;;;3.92;1.17;;;23.10;99.90;;;;;;5050092;28;20049;-77
2021/06/22 09:27:48;;;;;;;5.82;1.02;;;22.70;99.90;;;;;;5050798;28;20507;-80
2021/06/22 09:30:14;;;;;;;5.30;1.00;;;22.20;99.90;;;;;;5050262;28;20473;-75
2021/06/22 09:32:42;;;;;;;4.35;1.10;;;22.10;99.90;;;;;;5055257;28;20116;-75
2021/06/22 09:35:22;;;;;;;2.28;0.90;;;22.10;99.90;;;;;;5056337;28;20047;-81
2021/06/22 09:37:53;;;;;;;6.30;1.10;;;21.90;99.90;;;;;;5050811;28;20029;-81
2021/06/22 09:40:29;;;;;;;2.55;0.80;;;21.70;99.90;;;;;;5050179;28;20622;-72
2021/06/22 09:42:58;;;;;;;4.90;1.45;;;21.70;99.90;;;;;;5050318;28;20033;-74
2021/06/22 09:45:27;;;;;;;3.53;1.13;;;21.90;99.90;;;;;;5049806;28;20220;-74
2021/06/22 09:47:55;;;;;;;6.18;0.90;;;22.10;99.90;;;;;;5047542;28;20047;-74
2021/06/22 09:50:45;;;;;;;2.20;0.57;;;22.40;99.90;;;;;;5044310;28;20187;-74
2021/06/22 09:53:27;;;;;;;6.95;0.90;;;22.90;99.90;;;;;;5047599;28;20040;-73
2021/06/22 09:55:54;;;;;;;3.42;0.80;;;23.10;99.90;;;;;;5046139;28;20116;-74
2021/06/22 09:58:36;;;;;;;4.47;1.00;;;23.30;99.90;;;;;;5049724;28;20049;-74
2021/06/22 10:01:03;;;;;;;5.30;0.85;;;23.60;99.90;;;;;;5048807;28;20552;-75
2021/06/22 10:03:38;;;;;;;5.50;0.80;;;24.00;99.90;;;;;;5047816;28;20016;-74
2021/06/22 10:06:07;;;;;;;3.20;1.13;;;24.40;99.90;;;;;;5045474;28;20480;-74
2021/06/22 10:08:53;;;;;;;9.60;1.80;;;24.50;99.90;;;;;;5048643;28;20263;-74
2021/06/22 10:11:32;;;;;;;6.25;1.30;;;24.10;99.90;;;;;;5049317;28;20032;-74
2021/06/22 10:13:58;;;;;;;4.45;1.38;;;23.60;99.90;;;;;;5050012;28;20539;-74
2021/06/22 10:16:32;;;;;;;4.20;1.10;;;23.40;99.90;;;;;;5047987;28;20489;-73
2021/06/22 10:18:59;;;;;;;5.30;0.88;;;23.20;99.90;;;;;;5049494;28;20025;-74
2021/06/22 10:21:26;;;;;;;5.22;0.80;;;23.00;99.90;;;;;;5049258;28;20497;-73
2021/06/22 10:23:52;;;;;;;5.90;1.00;;;23.00;99.90;;;;;;5035738;28;20029;-75
2021/06/22 10:26:19;;;;;;;4.35;0.85;;;23.00;99.90;;;;;;5045898;28;20029;-73
2021/06/22 10:28:46;;;;;;;4.15;0.90;;;23.00;99.90;;;;;;5049654;28;20063;-74
2021/06/22 10:31:12;;;;;;;4.18;0.98;;;22.90;99.90;;;;;;5048890;28;20025;-74
2021/06/22 10:33:38;;;;;;;4.72;0.85;;;22.80;99.90;;;;;;5045726;28;20501;-74
2021/06/22 10:36:04;;;;;;;4.35;0.70;;;22.80;99.90;;;;;;5046134;28;20067;-74
2021/06/22 10:38:40;;;;;;;4.03;1.02;;;22.70;99.90;;;;;;5049316;28;20029;-74
2021/06/22 10:41:08;;;;;;;3.20;0.95;;;22.60;99.90;;;;;;5046737;28;20071;-73
2021/06/22 10:43:39;;;;;;;4.63;0.98;;;22.80;99.90;;;;;;5040975;28;20397;-74
2021/06/22 10:46:13;;;;;;;3.35;0.90;;;23.10;99.90;;;;;;5046893;28;20052;-74
2021/06/22 10:48:49;;;;;;;6.78;0.98;;;23.40;99.90;;;;;;5043100;28;20021;-74
2021/06/22 10:51:44;;;;;;;4.07;0.90;;;23.70;99.90;;;;;;5044849;28;20030;-74
2021/06/22 10:54:13;;;;;;;3.80;0.85;;;24.00;99.90;;;;;;5030259;28;20029;-74
2021/06/22 10:56:42;;;;;;;3.20;0.98;;;24.50;99.90;;;;;;5043767;28;20025;-74
2021/06/22 10:59:20;;;;;;;5.22;0.93;;;25.10;99.90;;;;;;5042701;28;20160;-87
2021/06/22 11:02:02;;;;;;;8.15;1.35;;;25.40;99.90;;;;;;5045118;28;20029;-73
2021/06/22 11:04:28;;;;;;;16.17;2.55;;;24.60;99.90;;;;;;5043970;28;20103;-73
2021/06/22 11:07:06;;;;;;;11.50;2.47;;;23.80;99.90;;;;;;5047884;28;20143;-73
2021/06/22 11:09:35;;;;;;;23.77;2.60;;;22.90;99.90;;;;;;5036319;28;20060;-73
2021/06/22 11:12:20;;;;;;;10.30;2.20;;;22.60;99.90;;;;;;5052213;28;20029;-73
2021/06/22 11:15:07;;;;;;;15.23;2.15;;;22.10;99.90;;;;;;5052383;28;20036;-73
2021/06/22 11:17:41;;;;;;;9.80;2.03;;;21.60;99.90;;;;;;5044999;28;20124;-79
2021/06/22 11:20:09;;;;;;;13.20;2.45;;;21.20;99.90;;;;;;5048006;28;20644;-72
2021/06/22 11:23:07;;;;;;;9.48;2.40;;;20.80;99.90;;;;;;5045448;28;20401;-72
2021/06/22 11:26:00;;;;;;;6.43;2.38;;;20.30;99.90;;;;;;5049511;28;20086;-73
2021/06/22 11:28:27;;;;;;;9.32;2.67;;;20.20;99.90;;;;;;5048226;28;20048;-73
2021/06/22 11:31:00;;;;;;;7.47;2.53;;;20.30;99.90;;;;;;5048012;28;20029;-73
2021/06/22 11:33:29;;;;;;;10.70;3.47;;;20.40;99.90;;;;;;5052621;28;20093;-72
2021/06/22 11:36:16;;;;;;;5.68;2.88;;;20.70;99.90;;;;;;5052313;28;20469;-73
2021/06/22 11:38:42;;;;;;;8.27;2.80;;;21.00;99.90;;;;;;5038333;28;20461;-73
2021/06/22 11:41:16;;;;;;;6.55;2.60;;;21.20;99.90;;;;;;5052242;28;20036;-73
2021/06/22 11:44:06;;;;;;;5.43;2.20;;;21.10;99.90;;;;;;5052647;28;20017;-74
2021/06/22 11:46:33;;;;;;;6.15;2.08;;;21.00;99.90;;;;;;5052224;28;20025;-74
2021/06/22 11:49:00;;;;;;;6.53;1.30;;;20.90;99.90;;;;;;5052369;28;20035;-74
2021/06/22 11:52:05;;;;;;;3.90;1.08;;;20.80;99.90;;;;;;5052335;28;20067;-73
2021/06/22 11:54:55;;;;;;;7.63;1.15;;;20.70;99.90;;;;;;5025015;28;20034;-74
2021/06/22 11:57:29;;;;;;;3.80;0.80;;;20.60;99.90;;;;;;5050783;28;20033;-74
2021/06/22 11:59:57;;;;;;;2.60;1.23;;;20.60;99.90;;;;;;5050485;28;20033;-74
2021/06/22 12:02:23;;;;;;;3.45;1.10;;;20.70;99.90;;;;;;5052128;28;20020;-74
2021/06/22 12:04:49;;;;;;;2.90;1.15;;;20.70;99.90;;;;;;5051526;28;20048;-74
2021/06/22 12:07:16;;;;;;;2.08;1.00;;;20.60;99.90;;;;;;5051971;28;20032;-74
2021/06/22 12:09:44;;;;;;;2.78;1.40;;;20.30;99.90;;;;;;5050370;28;20517;-74
2021/06/22 12:12:10;;;;;;;3.45;1.40;;;20.10;99.90;;;;;;5046036;28;20024;-74
2021/06/22 12:14:46;;;;;;;4.68;2.05;;;20.10;99.90;;;;;;5051624;28;20114;-74
2021/06/22 12:17:19;;;;;;;5.97;2.15;;;20.00;99.90;;;;;;5051974;28;20020;-74
2021/06/22 12:19:46;;;;;;;3.65;1.60;;;20.10;99.90;;;;;;5051485;28;20494;-73
2021/06/22 12:22:14;;;;;;;7.72;2.05;;;20.10;99.90;;;;;;5051077;28;20108;-74
2021/06/22 12:24:42;;;;;;;5.22;2.00;;;20.40;99.90;;;;;;5051206;28;20389;-74
2021/06/22 12:27:09;;;;;;;5.25;1.75;;;20.40;99.90;;;;;;5051749;28;20044;-74
2021/06/22 12:29:36;;;;;;;1.88;1.20;;;20.70;99.90;;;;;;5039155;28;20013;-74
2021/06/22 12:32:03;;;;;;;3.08;1.63;;;20.80;99.90;;;;;;5051991;28;20052;-75
2021/06/22 12:34:31;;;;;;;4.22;1.38;;;21.00;99.90;;;;;;5051129;28;20544;-74
2021/06/22 12:36:58;;;;;;;2.45;0.70;;;20.90;99.90;;;;;;5040487;28;20025;-74
2021/06/22 12:39:39;;;;;;;2.47;0.90;;;20.80;99.90;;;;;;5034445;28;20435;-74
2021/06/22 12:42:08;;;;;;;2.67;0.85;;;21.00;99.90;;;;;;5051951;28;20021;-73
2021/06/22 12:44:34;;;;;;;1.88;0.70;;;21.10;99.90;;;;;;5049589;28;20028;-73
2021/06/22 12:47:05;;;;;;;2.28;0.88;;;21.40;99.90;;;;;;5050107;28;20017;-73
2021/06/22 12:49:33;;;;;;;2.30;0.70;;;21.80;99.90;;;;;;5050211;28;20053;-73
2021/06/22 12:52:04;;;;;;;2.30;0.65;;;21.90;99.90;;;;;;5047879;28;20024;-73